Time;durP1;ratioP1;P1;durP2;ratioP2;P2;SDS_P1;SDS_P2;PMS_P1;PMS_P2;Temp;Humidity;BMP_temperature;BMP_pressure;BME280_temperature;BME280_humidity;BME280_pressure;Samples;Min_cycle;Max_cycle;Signal;HPM_P1;HPM_P2
2021/11/23 00:00:56;;;;;;;9.83;8.93;;;4.60;99.90;;;;;;5018212;28;20187;-82
2021/11/23 00:03:22;;;;;;;9.80;8.97;;;4.80;99.90;;;;;;5000503;28;20203;-83
2021/11/23 00:05:48;;;;;;;10.20;9.40;;;4.60;99.90;;;;;;5003533;28;20176;-83
2021/11/23 00:08:15;;;;;;;12.43;11.23;;;4.60;99.90;;;;;;4999201;28;20252;-83
2021/11/23 00:10:42;;;;;;;9.77;8.97;;;4.60;99.90;;;;;;4999002;28;20183;-82
2021/11/23 00:13:09;;;;;;;18.50;14.97;;;4.50;99.90;;;;;;5000573;28;20196;-83
2021/11/23 00:15:35;;;;;;;19.17;15.97;;;4.50;99.90;;;;;;5000481;28;20187;-82
2021/11/23 00:18:05;;;;;;;11.17;10.23;;;4.50;99.90;;;;;;5000447;28;20179;-82
2021/11/23 00:20:31;;;;;;;21.93;16.23;;;4.50;99.90;;;;;;4998549;28;20232;-83
2021/11/23 00:22:57;;;;;;;13.20;12.00;;;4.50;99.90;;;;;;5000164;28;20211;-83
2021/11/23 00:25:23;;;;;;;22.03;16.03;;;4.50;99.90;;;;;;5000491;28;20362;-83
2021/11/23 00:27:48;;;;;;;29.70;17.80;;;4.60;99.90;;;;;;5000766;28;20235;-83
2021/11/23 00:30:14;;;;;;;36.37;18.60;;;4.50;99.90;;;;;;5000012;28;20180;-82
2021/11/23 00:32:40;;;;;;;11.13;10.00;;;4.60;99.90;;;;;;4998871;28;20298;-83
2021/11/23 00:35:05;;;;;;;57.73;23.93;;;4.50;99.90;;;;;;4999327;28;20194;-83
2021/11/23 00:37:31;;;;;;;12.00;10.87;;;4.40;99.90;;;;;;4998775;28;20183;-83
2021/11/23 00:39:58;;;;;;;10.43;9.43;;;4.50;99.90;;;;;;4999646;28;20223;-82
2021/11/23 00:42:25;;;;;;;12.03;10.50;;;4.50;99.90;;;;;;5001627;28;20755;-82
2021/11/23 00:44:51;;;;;;;10.93;9.93;;;4.40;99.90;;;;;;5010737;28;20171;-83
2021/11/23 00:47:16;;;;;;;10.53;9.63;;;4.90;99.90;;;;;;5022738;28;20191;-83
2021/11/23 00:49:43;;;;;;;10.93;9.83;;;4.40;99.90;;;;;;5022305;28;20189;-83
2021/11/23 00:52:09;;;;;;;9.93;9.10;;;4.40;99.90;;;;;;5022380;28;20185;-82
2021/11/23 00:54:35;;;;;;;10.20;9.20;;;4.30;99.90;;;;;;5021252;28;20208;-83
2021/11/23 00:57:07;;;;;;;10.30;9.37;;;4.30;99.90;;;;;;5023489;28;20184;-83
2021/11/23 00:59:36;;;;;;;9.83;9.00;;;4.30;99.90;;;;;;5020203;28;20212;-83
2021/11/23 01:02:02;;;;;;;10.47;9.23;;;4.30;99.90;;;;;;5020710;28;20599;-83
2021/11/23 01:04:28;;;;;;;9.53;8.63;;;4.30;99.90;;;;;;5019714;28;20203;-82
2021/11/23 01:06:53;;;;;;;9.30;8.47;;;4.30;99.90;;;;;;5018417;28;20211;-83
2021/11/23 01:09:19;;;;;;;9.13;8.33;;;4.30;99.90;;;;;;5020085;28;20626;-81
2021/11/23 01:11:45;;;;;;;9.37;8.60;;;4.20;99.90;;;;;;5018141;28;20669;-82
2021/11/23 01:14:10;;;;;;;9.27;8.47;;;4.20;99.90;;;;;;5007005;28;20245;-82
2021/11/23 01:16:36;;;;;;;9.40;8.50;;;4.10;99.90;;;;;;4999100;28;20184;-82
2021/11/23 01:19:03;;;;;;;9.20;8.40;;;4.20;99.90;;;;;;5008645;28;20612;-83
2021/11/23 01:21:29;;;;;;;8.30;7.67;;;4.10;99.90;;;;;;5002322;28;20271;-82
2021/11/23 01:23:55;;;;;;;8.43;7.73;;;4.10;99.90;;;;;;4999106;28;20234;-82
2021/11/23 01:26:21;;;;;;;8.93;8.07;;;4.00;99.90;;;;;;5000043;28;20705;-83
2021/11/23 01:28:47;;;;;;;8.20;7.50;;;4.00;99.90;;;;;;5000773;28;20180;-82
2021/11/23 01:31:12;;;;;;;8.20;7.50;;;4.00;99.90;;;;;;5001993;28;20234;-83
2021/11/23 01:33:38;;;;;;;8.47;7.67;;;3.90;99.90;;;;;;5002006;28;20222;-83
2021/11/23 01:36:04;;;;;;;7.80;7.20;;;3.90;99.90;;;;;;5002993;28;20188;-82
2021/11/23 01:38:31;;;;;;;8.17;7.47;;;4.50;99.90;;;;;;4999997;28;20188;-82
2021/11/23 01:40:57;;;;;;;8.20;7.50;;;3.90;99.90;;;;;;4998850;28;20170;-83
2021/11/23 01:43:23;;;;;;;7.50;6.80;;;3.90;99.90;;;;;;4996803;28;20207;-82
2021/11/23 01:45:49;;;;;;;7.70;7.10;;;4.20;99.90;;;;;;5013388;28;20172;-83
2021/11/23 01:48:14;;;;;;;8.83;8.03;;;3.80;99.90;;;;;;5019116;28;20207;-83
2021/11/23 01:50:40;;;;;;;8.03;7.33;;;3.70;99.90;;;;;;5017415;28;20207;-83
2021/11/23 01:53:07;;;;;;;37.90;22.27;;;3.70;99.90;;;;;;5013648;28;20199;-83
2021/11/23 01:55:36;;;;;;;20.03;13.70;;;3.50;99.90;;;;;;5021917;28;20242;-83
2021/11/23 01:58:06;;;;;;;9.07;8.20;;;3.50;99.90;;;;;;5022220;28;20245;-83
2021/11/23 02:00:32;;;;;;;21.40;16.13;;;3.50;99.90;;;;;;5022405;28;20563;-83
2021/11/23 02:02:58;;;;;;;11.30;10.10;;;4.30;99.90;;;;;;5018633;28;20198;-83
2021/11/23 02:05:24;;;;;;;27.30;16.73;;;3.50;99.90;;;;;;5020223;28;20262;-83
2021/11/23 02:07:50;;;;;;;37.43;22.73;;;3.60;99.90;;;;;;5019907;28;20183;-83
2021/11/23 02:10:16;;;;;;;23.40;18.13;;;4.00;99.90;;;;;;5019700;28;20242;-83
2021/11/23 02:12:41;;;;;;;11.90;10.77;;;3.60;99.90;;;;;;5015649;28;20207;-83
2021/11/23 02:15:09;;;;;;;13.10;11.73;;;3.60;99.90;;;;;;5000782;28;20176;-83
2021/11/23 02:17:35;;;;;;;67.87;40.60;;;3.60;99.90;;;;;;5002401;28;20181;-83
2021/11/23 02:20:03;;;;;;;23.63;16.73;;;3.60;99.90;;;;;;5003191;28;20672;-82
2021/11/23 02:22:29;;;;;;;27.37;20.97;;;3.60;99.90;;;;;;5000944;28;20239;-83
2021/11/23 02:24:54;;;;;;;12.47;11.27;;;3.60;99.90;;;;;;5001015;28;20185;-82
2021/11/23 02:27:21;;;;;;;12.17;11.07;;;3.60;99.90;;;;;;5002217;28;20204;-83
2021/11/23 02:29:46;;;;;;;14.20;12.40;;;3.60;99.90;;;;;;5003005;28;20186;-82
2021/11/23 02:32:12;;;;;;;36.63;23.57;;;4.10;99.90;;;;;;5002120;28;20587;-83
2021/11/23 02:34:38;;;;;;;14.13;12.33;;;3.60;99.90;;;;;;5001279;28;20602;-83
2021/11/23 02:37:03;;;;;;;11.50;10.47;;;3.60;99.90;;;;;;5002500;28;20195;-83
2021/11/23 02:39:29;;;;;;;11.63;10.63;;;3.60;99.90;;;;;;5002826;28;20206;-82
2021/11/23 02:41:55;;;;;;;12.50;11.27;;;3.60;99.90;;;;;;5004656;28;20285;-82
2021/11/23 02:44:21;;;;;;;11.17;10.07;;;3.70;99.90;;;;;;5015630;28;20208;-82
2021/11/23 02:46:47;;;;;;;11.87;10.67;;;3.60;99.90;;;;;;5020381;28;20179;-82
2021/11/23 02:49:14;;;;;;;11.77;10.50;;;3.60;99.90;;;;;;5020568;28;20246;-82
2021/11/23 02:51:40;;;;;;;11.17;10.03;;;3.60;99.90;;;;;;5019307;28;20183;-83
2021/11/23 02:54:07;;;;;;;11.80;10.70;;;3.60;99.90;;;;;;5016428;28;20239;-83
2021/11/23 02:56:32;;;;;;;14.33;12.83;;;3.60;99.90;;;;;;5018837;28;20236;-83
2021/11/23 02:58:58;;;;;;;11.70;10.50;;;3.60;99.90;;;;;;5019803;28;20195;-83
2021/11/23 03:01:26;;;;;;;10.00;9.10;;;3.60;99.90;;;;;;5019332;28;20183;-83
2021/11/23 03:03:53;;;;;;;9.47;8.57;;;3.60;99.90;;;;;;5020780;28;20214;-83
2021/11/23 03:06:20;;;;;;;10.60;9.60;;;3.70;99.90;;;;;;5020185;28;20917;-83
2021/11/23 03:08:47;;;;;;;9.53;8.73;;;3.60;99.90;;;;;;5018922;28;20191;-83
2021/11/23 03:11:15;;;;;;;9.67;8.77;;;3.60;99.90;;;;;;5020842;28;20191;-83
2021/11/23 03:13:42;;;;;;;9.90;9.00;;;3.60;99.90;;;;;;5019714;28;20207;-83
2021/11/23 03:16:08;;;;;;;12.60;11.30;;;3.60;99.90;;;;;;5020126;28;20183;-82
2021/11/23 03:18:33;;;;;;;12.97;11.10;;;3.70;99.90;;;;;;5021213;28;20187;-82
2021/11/23 03:21:00;;;;;;;11.47;10.33;;;3.70;99.90;;;;;;5021394;28;20190;-82
2021/11/23 03:23:26;;;;;;;11.23;10.00;;;4.50;99.90;;;;;;5020694;28;20221;-80
2021/11/23 03:25:52;;;;;;;11.57;10.47;;;3.60;99.90;;;;;;5020970;28;20184;-83
2021/11/23 03:28:18;;;;;;;12.73;11.43;;;3.60;99.90;;;;;;5020002;28;20258;-83
2021/11/23 03:30:44;;;;;;;11.10;10.00;;;3.60;99.90;;;;;;5019197;28;20187;-82
2021/11/23 03:33:10;;;;;;;12.53;11.03;;;3.60;99.90;;;;;;5020502;28;20296;-82
2021/11/23 03:35:43;;;;;;;12.73;11.47;;;3.50;99.90;;;;;;5020440;28;20184;-83
2021/11/23 03:38:11;;;;;;;11.63;10.43;;;3.50;99.90;;;;;;5020156;28;20187;-83
2021/11/23 03:40:38;;;;;;;11.73;10.53;;;3.50;99.90;;;;;;5019287;28;20198;-82
2021/11/23 03:43:06;;;;;;;12.67;11.23;;;3.50;99.90;;;;;;5020687;28;20210;-83
2021/11/23 03:45:33;;;;;;;13.60;11.13;;;3.50;99.90;;;;;;5019289;28;20180;-82
2021/11/23 03:48:00;;;;;;;12.40;11.10;;;3.50;99.90;;;;;;5016826;28;20215;-82
2021/11/23 03:50:28;;;;;;;12.80;11.37;;;3.50;99.90;;;;;;5016531;28;20210;-82
2021/11/23 03:52:55;;;;;;;11.77;10.53;;;4.50;99.90;;;;;;5014522;28;20230;-82
2021/11/23 03:55:21;;;;;;;11.90;10.60;;;3.50;99.90;;;;;;5019001;28;20241;-82
2021/11/23 03:57:50;;;;;;;13.53;12.13;;;3.50;99.90;;;;;;5009068;28;20658;-82
2021/11/23 04:00:18;;;;;;;13.53;11.57;;;3.40;99.90;;;;;;5009183;28;20573;-82
2021/11/23 04:02:45;;;;;;;12.73;11.43;;;3.90;99.90;;;;;;5018870;28;20198;-82
2021/11/23 04:05:11;;;;;;;12.77;11.47;;;3.40;99.90;;;;;;5015343;28;20195;-81
2021/11/23 04:07:40;;;;;;;12.50;11.20;;;3.40;99.90;;;;;;5019811;28;20186;-82
2021/11/23 04:10:10;;;;;;;11.80;10.67;;;3.40;99.90;;;;;;4999714;28;20172;-82
2021/11/23 04:12:36;;;;;;;11.93;10.70;;;3.50;99.90;;;;;;5007800;28;20184;-83
2021/11/23 04:15:03;;;;;;;12.80;11.43;;;3.40;99.90;;;;;;5017283;28;20179;-83
2021/11/23 04:17:29;;;;;;;12.37;11.10;;;3.30;99.90;;;;;;5016227;28;20211;-82
2021/11/23 04:19:54;;;;;;;12.90;10.83;;;3.30;99.90;;;;;;5017167;28;20846;-82
2021/11/23 04:22:20;;;;;;;13.03;11.67;;;3.40;99.90;;;;;;5016305;28;20179;-83
2021/11/23 04:24:46;;;;;;;12.37;10.87;;;3.40;99.90;;;;;;5018229;28;20207;-82
2021/11/23 04:27:11;;;;;;;12.20;11.00;;;3.30;99.90;;;;;;5017141;28;20258;-83
2021/11/23 04:29:37;;;;;;;10.90;9.87;;;3.30;99.90;;;;;;5017332;28;20181;-83
2021/11/23 04:32:03;;;;;;;11.27;10.27;;;3.50;99.90;;;;;;5016700;28;20217;-82
2021/11/23 04:34:29;;;;;;;11.30;10.20;;;3.20;99.90;;;;;;5017585;28;20225;-83
2021/11/23 04:36:55;;;;;;;11.23;10.13;;;3.40;99.90;;;;;;5017303;28;21643;-82
2021/11/23 04:39:20;;;;;;;11.07;9.97;;;3.30;99.90;;;;;;5017344;28;20217;-83
2021/11/23 04:41:46;;;;;;;10.50;9.50;;;3.30;99.90;;;;;;5019380;28;20179;-83
2021/11/23 04:44:12;;;;;;;11.53;9.90;;;3.30;99.90;;;;;;5019275;28;20203;-83
2021/11/23 04:46:38;;;;;;;11.33;10.23;;;3.30;99.90;;;;;;5019279;28;20182;-83
2021/11/23 04:49:04;;;;;;;10.90;9.80;;;3.20;99.90;;;;;;5018688;28;20729;-82
2021/11/23 04:51:30;;;;;;;10.90;9.90;;;3.20;99.90;;;;;;5018671;28;20265;-83
2021/11/23 04:53:56;;;;;;;11.07;9.97;;;3.30;99.90;;;;;;5018755;28;20855;-83
2021/11/23 04:56:22;;;;;;;11.63;10.40;;;3.20;99.90;;;;;;5017099;28;20607;-82
2021/11/23 04:58:47;;;;;;;11.27;10.17;;;3.10;99.90;;;;;;5017353;28;20681;-82
2021/11/23 05:01:13;;;;;;;11.63;10.53;;;3.10;99.90;;;;;;5013619;28;20192;-82
2021/11/23 05:03:39;;;;;;;11.87;10.77;;;3.00;99.90;;;;;;5017356;28;20198;-82
2021/11/23 05:06:05;;;;;;;11.10;10.03;;;3.10;99.90;;;;;;5012692;28;20551;-82
2021/11/23 05:08:30;;;;;;;11.30;10.17;;;3.10;99.90;;;;;;5016477;28;20179;-82
2021/11/23 05:10:57;;;;;;;11.70;10.50;;;3.10;99.90;;;;;;5017253;28;20668;-80
2021/11/23 05:13:22;;;;;;;11.33;10.23;;;3.10;99.90;;;;;;5018323;28;20241;-82
2021/11/23 05:15:48;;;;;;;11.80;10.70;;;3.20;99.90;;;;;;5018236;28;20188;-82
2021/11/23 05:18:14;;;;;;;11.27;10.27;;;3.30;99.90;;;;;;5017199;28;20175;-82
2021/11/23 05:20:39;;;;;;;11.43;10.40;;;3.10;99.90;;;;;;5016996;28;20212;-82
2021/11/23 05:23:05;;;;;;;11.50;10.43;;;3.10;99.90;;;;;;5018000;28;20591;-82
2021/11/23 05:25:31;;;;;;;11.67;10.57;;;3.40;99.90;;;;;;5012348;28;20192;-82
2021/11/23 05:27:56;;;;;;;11.70;10.70;;;3.10;99.90;;;;;;5012993;28;20179;-82
2021/11/23 05:30:22;;;;;;;11.80;10.63;;;3.10;99.90;;;;;;5009333;28;20193;-82
2021/11/23 05:32:47;;;;;;;12.43;10.97;;;3.20;99.90;;;;;;5016354;28;20678;-81
2021/11/23 05:35:13;;;;;;;11.77;10.57;;;3.10;99.90;;;;;;5016177;28;20195;-82
2021/11/23 05:37:39;;;;;;;11.60;10.50;;;3.10;99.90;;;;;;5015927;28;20183;-83
2021/11/23 05:40:07;;;;;;;12.43;11.13;;;3.10;99.90;;;;;;5016777;28;20262;-81
2021/11/23 05:42:33;;;;;;;12.07;11.03;;;3.00;99.90;;;;;;5017441;28;20179;-82
2021/11/23 05:44:59;;;;;;;12.60;11.23;;;3.00;99.90;;;;;;5018252;28;20171;-82
2021/11/23 05:47:24;;;;;;;13.13;11.73;;;3.00;99.90;;;;;;5027971;28;20187;-83
2021/11/23 05:49:50;;;;;;;12.90;11.60;;;3.00;99.90;;;;;;5027245;28;20176;-83
2021/11/23 05:52:17;;;;;;;11.97;10.73;;;2.90;99.90;;;;;;5025912;28;20654;-82
2021/11/23 05:54:45;;;;;;;11.90;10.57;;;2.90;99.90;;;;;;5023419;28;20175;-82
2021/11/23 05:57:10;;;;;;;14.00;11.70;;;2.90;99.90;;;;;;5015210;28;20175;-82
2021/11/23 05:59:36;;;;;;;12.57;11.27;;;2.90;99.90;;;;;;5015328;28;20200;-83
2021/11/23 06:02:02;;;;;;;12.77;11.47;;;2.80;99.90;;;;;;5017284;28;20187;-82
2021/11/23 06:04:27;;;;;;;13.90;12.50;;;2.70;99.90;;;;;;5017635;28;20195;-82
2021/11/23 06:06:53;;;;;;;13.30;11.97;;;2.70;99.90;;;;;;5016247;28;20179;-82
2021/11/23 06:09:18;;;;;;;15.77;12.47;;;2.70;99.90;;;;;;5017291;28;20633;-82
2021/11/23 06:11:44;;;;;;;14.30;11.83;;;2.70;99.90;;;;;;5015153;28;20180;-83
2021/11/23 06:14:10;;;;;;;13.87;11.73;;;2.60;99.90;;;;;;5018104;28;20253;-83
2021/11/23 06:16:37;;;;;;;13.13;11.83;;;2.60;99.90;;;;;;5019736;28;20186;-83
2021/11/23 06:19:03;;;;;;;12.87;11.57;;;2.60;99.90;;;;;;5020101;28;20214;-82
2021/11/23 06:21:28;;;;;;;12.80;11.50;;;2.50;99.90;;;;;;5017772;28;20205;-82
2021/11/23 06:23:55;;;;;;;11.93;10.70;;;2.40;99.90;;;;;;5018174;28;20274;-82
2021/11/23 06:26:21;;;;;;;12.60;11.30;;;2.50;99.90;;;;;;5018588;28;20183;-82
2021/11/23 06:28:47;;;;;;;12.30;10.67;;;2.40;99.90;;;;;;5018435;28;20258;-81
2021/11/23 06:31:13;;;;;;;12.83;11.10;;;2.40;99.90;;;;;;5018636;28;20249;-82
2021/11/23 06:33:39;;;;;;;15.93;12.00;;;2.70;99.90;;;;;;5018052;28;20203;-81
2021/11/23 06:36:05;;;;;;;12.60;11.20;;;2.30;99.90;;;;;;5018307;28;20187;-82
2021/11/23 06:38:32;;;;;;;16.47;12.67;;;2.20;99.90;;;;;;5017582;28;20206;-82
2021/11/23 06:40:58;;;;;;;17.57;12.33;;;2.10;99.90;;;;;;5017939;28;20179;-81
2021/11/23 06:43:24;;;;;;;14.13;11.60;;;2.20;99.90;;;;;;5014931;28;20565;-82
2021/11/23 06:45:49;;;;;;;13.77;11.60;;;2.60;99.90;;;;;;5016078;28;20231;-82
2021/11/23 06:48:15;;;;;;;15.63;12.87;;;2.00;99.90;;;;;;5016207;28;20183;-82
2021/11/23 06:50:41;;;;;;;16.07;12.30;;;2.10;99.90;;;;;;5016082;28;20259;-83
2021/11/23 06:53:09;;;;;;;14.60;11.93;;;2.40;99.90;;;;;;5016124;28;20201;-82
2021/11/23 06:55:35;;;;;;;16.10;12.17;;;2.20;99.90;;;;;;5016599;28;20175;-82
2021/11/23 06:58:01;;;;;;;14.70;12.43;;;2.00;99.90;;;;;;5016023;28;20167;-82
2021/11/23 07:00:27;;;;;;;18.17;13.37;;;2.00;99.90;;;;;;5014912;28;20565;-82
2021/11/23 07:02:53;;;;;;;15.10;12.50;;;1.90;99.90;;;;;;5018007;28;20191;-81
2021/11/23 07:05:19;;;;;;;16.73;12.83;;;1.90;99.90;;;;;;5019613;28;20209;-81
2021/11/23 07:07:44;;;;;;;15.47;12.27;;;1.90;99.90;;;;;;5020364;28;20178;-82
2021/11/23 07:10:12;;;;;;;15.97;12.23;;;1.90;99.90;;;;;;5020707;28;20268;-82
2021/11/23 07:12:38;;;;;;;16.73;12.47;;;1.80;99.90;;;;;;5019629;28;20591;-82
2021/11/23 07:15:05;;;;;;;19.17;14.13;;;1.90;99.90;;;;;;5021105;28;20298;-83
2021/11/23 07:17:30;;;;;;;13.97;11.93;;;1.80;99.90;;;;;;5020581;28;20176;-82
2021/11/23 07:19:56;;;;;;;12.83;10.90;;;1.90;99.90;;;;;;5020242;28;20214;-82
2021/11/23 07:22:22;;;;;;;17.03;12.77;;;1.90;99.90;;;;;;5017521;28;20187;-81
2021/11/23 07:24:48;;;;;;;14.53;11.23;;;1.90;99.90;;;;;;5018396;28;20590;-82
2021/11/23 07:27:14;;;;;;;14.80;11.83;;;1.90;99.90;;;;;;4999360;28;20191;-82
2021/11/23 07:29:40;;;;;;;14.50;11.83;;;1.90;99.90;;;;;;5003851;28;20686;-82
2021/11/23 07:32:07;;;;;;;15.10;12.03;;;2.00;99.90;;;;;;5007401;28;20266;-81
2021/11/23 07:34:33;;;;;;;14.53;12.00;;;2.00;99.90;;;;;;5018853;28;20723;-82
2021/11/23 07:36:59;;;;;;;16.07;12.23;;;2.10;99.90;;;;;;5016588;28;20310;-82
2021/11/23 07:39:27;;;;;;;16.13;12.20;;;2.10;99.90;;;;;;5019257;28;20199;-82
2021/11/23 07:41:53;;;;;;;16.03;12.37;;;2.10;99.90;;;;;;5019736;28;20554;-82
2021/11/23 07:44:18;;;;;;;14.33;11.40;;;2.20;99.90;;;;;;5018877;28;20696;-82
2021/11/23 07:46:44;;;;;;;17.87;12.37;;;2.10;99.90;;;;;;5019427;28;20179;-81
2021/11/23 07:49:10;;;;;;;15.10;12.13;;;2.20;99.90;;;;;;5019084;28;20666;-82
2021/11/23 07:51:36;;;;;;;14.03;11.43;;;2.10;99.90;;;;;;5017941;28;20183;-82
2021/11/23 07:54:02;;;;;;;16.57;12.87;;;2.20;99.90;;;;;;5017643;28;20219;-82
2021/11/23 07:56:29;;;;;;;16.87;12.37;;;2.20;99.90;;;;;;5019661;28;20529;-81
2021/11/23 07:58:54;;;;;;;17.07;12.40;;;2.50;99.90;;;;;;5015621;28;20226;-83
2021/11/23 08:01:20;;;;;;;16.77;12.77;;;2.10;99.90;;;;;;5016930;28;20194;-82
2021/11/23 08:03:46;;;;;;;14.77;11.60;;;2.10;99.90;;;;;;5017376;28;20206;-82
2021/11/23 08:06:11;;;;;;;15.73;12.60;;;2.10;99.90;;;;;;5019368;28;20186;-82
2021/11/23 08:08:38;;;;;;;15.43;12.13;;;2.20;99.90;;;;;;5017529;28;20642;-82
2021/11/23 08:11:04;;;;;;;21.30;13.67;;;2.20;99.90;;;;;;5018632;28;20229;-82
2021/11/23 08:13:30;;;;;;;28.50;19.03;;;2.20;99.90;;;;;;5016937;28;20195;-82
2021/11/23 08:15:56;;;;;;;18.40;13.80;;;2.20;99.90;;;;;;5015078;28;20175;-82
2021/11/23 08:18:22;;;;;;;18.03;13.37;;;2.30;99.90;;;;;;5016178;28;20581;-82
2021/11/23 08:20:47;;;;;;;16.80;12.87;;;2.70;99.90;;;;;;5016245;28;20191;-81
2021/11/23 08:23:13;;;;;;;29.73;21.27;;;2.40;99.90;;;;;;5016630;28;20218;-82
2021/11/23 08:25:39;;;;;;;15.87;12.97;;;2.40;99.90;;;;;;5017959;28;20661;-81
2021/11/23 08:28:06;;;;;;;14.23;12.20;;;2.50;99.90;;;;;;5015399;28;20171;-82
2021/11/23 08:30:33;;;;;;;14.87;12.07;;;2.40;99.90;;;;;;5016857;28;20175;-81
2021/11/23 08:32:58;;;;;;;15.23;12.30;;;2.50;99.90;;;;;;5017278;28;20229;-81
2021/11/23 08:35:24;;;;;;;16.90;14.10;;;2.40;99.90;;;;;;5016498;28;20546;-81
2021/11/23 08:37:50;;;;;;;15.27;12.93;;;2.40;99.90;;;;;;5018629;28;20183;-82
2021/11/23 08:40:17;;;;;;;16.87;12.50;;;2.50;99.90;;;;;;5018668;28;20678;-82
2021/11/23 08:42:43;;;;;;;22.67;15.27;;;3.20;99.90;;;;;;5017055;28;20194;-82
2021/11/23 08:45:11;;;;;;;48.00;22.87;;;2.60;99.90;;;;;;5019251;28;20642;-82
2021/11/23 08:47:36;;;;;;;15.50;12.07;;;2.50;99.90;;;;;;5019023;28;20572;-81
2021/11/23 08:50:06;;;;;;;18.73;13.43;;;2.50;99.90;;;;;;5019072;28;20287;-81
2021/11/23 08:52:32;;;;;;;27.17;15.37;;;2.40;99.90;;;;;;5017690;28;20203;-80
2021/11/23 08:54:57;;;;;;;18.60;12.93;;;2.50;99.90;;;;;;5016649;28;20254;-82
2021/11/23 08:57:24;;;;;;;38.37;18.53;;;2.60;99.90;;;;;;5014317;28;20191;-82
2021/11/23 08:59:51;;;;;;;27.93;15.90;;;2.60;99.90;;;;;;5018223;28;20202;-82
2021/11/23 09:02:18;;;;;;;49.07;21.03;;;2.60;99.90;;;;;;5017748;28;20172;-82
2021/11/23 09:04:44;;;;;;;19.37;13.17;;;2.70;99.90;;;;;;5014767;28;20695;-82
2021/11/23 09:07:14;;;;;;;21.10;13.70;;;2.60;99.90;;;;;;5009697;28;20179;-82
2021/11/23 09:09:42;;;;;;;19.03;13.83;;;2.70;99.90;;;;;;5018645;28;20179;-81
2021/11/23 09:12:10;;;;;;;87.43;31.43;;;2.70;99.90;;;;;;5018973;28;20177;-82
2021/11/23 09:14:36;;;;;;;19.87;14.20;;;2.70;99.90;;;;;;5017412;28;20208;-82
2021/11/23 09:17:05;;;;;;;19.20;13.93;;;3.20;99.90;;;;;;5017583;28;20605;-82
2021/11/23 09:19:32;;;;;;;22.43;14.77;;;2.80;99.90;;;;;;5017877;28;20203;-82
2021/11/23 09:21:58;;;;;;;17.53;12.93;;;3.30;99.90;;;;;;5018369;28;20540;-82
2021/11/23 09:24:24;;;;;;;17.47;14.30;;;3.10;99.90;;;;;;5017735;28;20222;-82
2021/11/23 09:26:51;;;;;;;15.47;12.67;;;3.00;99.90;;;;;;5017813;28;20694;-82
2021/11/23 09:29:19;;;;;;;17.43;13.23;;;2.80;99.90;;;;;;5012831;28;20201;-81
2021/11/23 09:31:45;;;;;;;15.23;12.53;;;2.90;99.90;;;;;;5007514;28;20179;-82
2021/11/23 09:34:12;;;;;;;17.67;13.93;;;2.90;99.90;;;;;;5016325;28;20207;-81
2021/11/23 09:36:39;;;;;;;19.30;15.17;;;2.90;99.90;;;;;;5016581;28;20525;-82
2021/11/23 09:39:06;;;;;;;19.17;14.87;;;2.90;99.90;;;;;;5013753;28;20206;-82
2021/11/23 09:41:33;;;;;;;20.50;15.80;;;3.00;99.90;;;;;;5016375;28;20175;-80
2021/11/23 09:44:00;;;;;;;18.13;14.70;;;3.00;99.90;;;;;;5012956;28;20197;-81
2021/11/23 09:46:29;;;;;;;21.73;15.70;;;2.90;99.90;;;;;;4997650;28;20242;-81
2021/11/23 09:48:55;;;;;;;42.57;27.27;;;2.90;99.90;;;;;;5003923;28;20215;-81
2021/11/23 09:51:32;;;;;;;20.70;15.50;;;3.00;99.90;;;;;;5016414;28;20184;-81
2021/11/23 09:53:59;;;;;;;17.40;13.97;;;3.00;99.90;;;;;;5017322;28;20263;-81
2021/11/23 09:56:25;;;;;;;20.47;13.10;;;3.00;99.90;;;;;;5018303;28;20179;-81
2021/11/23 09:58:55;;;;;;;23.07;17.40;;;3.00;99.90;;;;;;5016400;28;20654;-81
2021/11/23 10:01:24;;;;;;;18.03;13.87;;;3.50;99.90;;;;;;5017521;28;20175;-81
2021/11/23 10:03:51;;;;;;;16.10;12.77;;;3.00;99.90;;;;;;5016444;28;20196;-81
2021/11/23 10:06:21;;;;;;;17.87;13.67;;;3.10;99.90;;;;;;5016523;28;20175;-81
2021/11/23 10:08:49;;;;;;;16.73;12.93;;;3.20;99.90;;;;;;5018253;28;20217;-80
2021/11/23 10:11:30;;;;;;;17.80;13.80;;;4.00;99.90;;;;;;5017884;28;20195;-80
2021/11/23 10:14:01;;;;;;;17.70;13.87;;;3.10;99.90;;;;;;5015755;28;20248;-81
2021/11/23 10:16:42;;;;;;;21.67;16.07;;;3.10;99.90;;;;;;5012981;28;20261;-81
2021/11/23 10:19:10;;;;;;;17.27;14.17;;;3.10;99.90;;;;;;5010659;28;20202;-81
2021/11/23 10:21:46;;;;;;;18.43;14.17;;;3.10;99.90;;;;;;5016039;28;20179;-81
2021/11/23 10:24:12;;;;;;;17.80;14.20;;;3.20;99.90;;;;;;5017878;28;20217;-82
2021/11/23 10:26:38;;;;;;;16.73;14.43;;;3.10;99.90;;;;;;5018078;28;20167;-82
2021/11/23 10:29:05;;;;;;;18.83;14.50;;;3.10;99.90;;;;;;5017174;28;20188;-82
2021/11/23 10:31:37;;;;;;;16.03;13.20;;;3.20;99.90;;;;;;5016938;28;20190;-83
2021/11/23 10:34:08;;;;;;;17.60;13.47;;;3.60;99.90;;;;;;5017205;28;20712;-81
2021/11/23 10:36:36;;;;;;;16.20;12.43;;;3.30;99.90;;;;;;5018911;28;20724;-81
2021/11/23 10:39:17;;;;;;;16.57;12.00;;;3.30;99.90;;;;;;5022171;28;20199;-82
2021/11/23 10:41:50;;;;;;;15.37;11.33;;;3.30;99.90;;;;;;5021107;28;20184;-82
2021/11/23 10:44:18;;;;;;;14.83;12.03;;;3.30;99.90;;;;;;5020753;28;20589;-82
2021/11/23 10:46:52;;;;;;;14.53;11.67;;;3.30;99.90;;;;;;5022118;28;20187;-82
2021/11/23 10:49:29;;;;;;;16.90;13.57;;;3.20;99.90;;;;;;5022016;28;20234;-82
2021/11/23 10:51:55;;;;;;;15.23;12.00;;;3.20;99.90;;;;;;5021649;28;20232;-82
2021/11/23 10:54:20;;;;;;;15.70;12.27;;;3.10;99.90;;;;;;5021624;28;20575;-82
2021/11/23 10:56:58;;;;;;;16.80;12.23;;;3.20;99.90;;;;;;5019822;28;20210;-81
2021/11/23 10:59:24;;;;;;;15.73;12.40;;;3.20;99.90;;;;;;5018374;28;20276;-81
2021/11/23 11:01:51;;;;;;;17.60;12.67;;;3.10;99.90;;;;;;5024911;28;20175;-82
2021/11/23 11:04:19;;;;;;;16.00;12.53;;;3.10;99.90;;;;;;5023884;28;20273;-82
2021/11/23 11:06:45;;;;;;;19.07;14.40;;;3.20;99.90;;;;;;5021571;28;20559;-82
2021/11/23 11:09:12;;;;;;;16.93;13.47;;;3.70;99.90;;;;;;5021702;28;20187;-83
2021/11/23 11:11:41;;;;;;;16.50;14.70;;;3.20;99.90;;;;;;5020134;28;20183;-82
2021/11/23 11:14:07;;;;;;;16.00;12.63;;;3.30;99.90;;;;;;5021563;28;20195;-83
2021/11/23 11:16:36;;;;;;;15.50;12.00;;;3.30;99.90;;;;;;5022452;28;20548;-83
2021/11/23 11:19:03;;;;;;;14.33;11.37;;;3.20;99.90;;;;;;5021484;28;20198;-82
2021/11/23 11:21:29;;;;;;;15.83;12.77;;;3.20;99.90;;;;;;5014488;28;20203;-83
2021/11/23 11:24:51;;;;;;;14.33;12.10;;;3.10;99.90;;;;;;5005620;28;20250;-82
2021/11/23 11:27:46;;;;;;;16.53;12.33;;;3.10;99.90;;;;;;5013211;28;20199;-82
2021/11/23 11:30:31;;;;;;;16.67;12.33;;;3.10;99.90;;;;;;5010939;28;20244;-82
2021/11/23 11:33:06;;;;;;;13.80;11.33;;;3.10;99.90;;;;;;5010608;28;20202;-82
2021/11/23 11:35:36;;;;;;;14.43;12.00;;;3.10;99.90;;;;;;5008328;28;20179;-82
2021/11/23 11:38:04;;;;;;;22.10;14.97;;;3.20;99.90;;;;;;5010320;28;20696;-82
2021/11/23 11:40:36;;;;;;;14.93;12.03;;;3.20;99.90;;;;;;5014358;28;20541;-82
2021/11/23 11:43:06;;;;;;;17.77;12.40;;;3.30;99.90;;;;;;5059174;23;20220;-81
2021/11/23 11:45:51;;;;;;;15.63;13.47;;;3.10;99.90;;;;;;5010464;28;20183;-80
2021/11/23 11:48:29;;;;;;;16.43;12.07;;;2.90;99.90;;;;;;5007789;28;20199;-83
2021/11/23 11:51:14;;;;;;;17.03;12.30;;;3.10;99.90;;;;;;5009675;28;20202;-81
2021/11/23 11:53:46;;;;;;;15.43;11.73;;;3.10;99.90;;;;;;4990836;28;20181;-79
2021/11/23 11:56:14;;;;;;;14.47;12.03;;;3.40;99.90;;;;;;4992807;28;20177;-79
2021/11/23 11:58:57;;;;;;;16.63;12.53;;;4.00;99.90;;;;;;4978226;28;20181;-82
2021/11/23 12:01:33;;;;;;;16.93;12.70;;;4.10;99.90;;;;;;4993583;28;20244;-81
2021/11/23 12:04:03;;;;;;;17.50;12.47;;;3.00;99.90;;;;;;4993808;28;20200;-82
2021/11/23 12:06:59;;;;;;;15.50;12.50;;;3.20;99.90;;;;;;4993423;28;20176;-81
2021/11/23 12:09:43;;;;;;;20.03;14.67;;;3.30;99.90;;;;;;4995075;28;20183;-81
2021/11/23 12:12:09;;;;;;;14.57;12.03;;;3.20;99.90;;;;;;4994166;28;20203;-80
2021/11/23 12:14:53;;;;;;;17.47;12.47;;;4.50;99.90;;;;;;5009459;28;20177;-81
2021/11/23 12:17:28;;;;;;;15.30;12.70;;;3.30;99.90;;;;;;5009243;28;20212;-81
2021/11/23 12:20:09;;;;;;;17.50;13.00;;;3.40;99.90;;;;;;4992135;28;20200;-81
2021/11/23 12:22:41;;;;;;;19.10;12.73;;;3.30;99.90;;;;;;4994043;28;20192;-80
2021/11/23 12:25:12;;;;;;;15.13;11.83;;;3.40;99.90;;;;;;4994402;28;20173;-80
2021/11/23 12:27:42;;;;;;;15.93;12.10;;;3.30;99.90;;;;;;4993814;28;20199;-78
2021/11/23 12:30:08;;;;;;;17.97;13.83;;;3.80;99.90;;;;;;4993070;28;20180;-80
2021/11/23 12:32:37;;;;;;;20.20;13.37;;;3.30;99.90;;;;;;4992409;28;20537;-80
2021/11/23 12:35:04;;;;;;;17.90;14.20;;;3.40;99.90;;;;;;4992200;28;20207;-80
2021/11/23 12:37:38;;;;;;;13.73;11.20;;;3.40;99.90;;;;;;5006173;28;20208;-79
2021/11/23 12:40:32;;;;;;;54.63;32.77;;;3.40;99.90;;;;;;4983364;28;20675;-81